createdAt,value
2022-12-09T00:01:12.643Z,911.05
2022-12-09T00:03:40.309Z,936.40
2022-12-09T00:06:14.998Z,939.03
2022-12-09T00:08:42.200Z,934.05
2022-12-09T00:11:09.386Z,934.60
2022-12-09T00:13:36.916Z,937.83
2022-12-09T00:16:09.040Z,944.05
2022-12-09T00:18:36.623Z,937.60
2022-12-09T00:21:11.487Z,873.22
2022-12-09T00:23:38.640Z,930.45
2022-12-09T00:26:05.521Z,929.13
2022-12-09T00:28:32.340Z,936.38
2022-12-09T00:31:00.836Z,932.25
2022-12-09T00:33:29.282Z,934.20
2022-12-09T00:35:56.137Z,934.33
2022-12-09T00:38:22.931Z,932.17
2022-12-09T00:40:49.840Z,933.78
2022-12-09T00:43:16.728Z,944.53
2022-12-09T00:45:45.350Z,943.47
2022-12-09T00:48:12.233Z,952.05
2022-12-09T00:50:38.964Z,953.97
2022-12-09T00:53:05.887Z,950.13
2022-12-09T00:55:32.698Z,947.30
2022-12-09T00:57:59.526Z,937.95
2022-12-09T01:00:26.378Z,949.93
2022-12-09T01:02:53.185Z,945.08
2022-12-09T01:05:20.161Z,939.28
2022-12-09T01:07:47.965Z,939.00
2022-12-09T01:10:15.575Z,943.30
2022-12-09T01:12:43.159Z,941.80
2022-12-09T01:15:10.555Z,943.00
2022-12-09T01:17:38.099Z,948.07
2022-12-09T01:20:07.564Z,928.47
2022-12-09T01:22:34.895Z,929.88
2022-12-09T01:25:02.092Z,945.30
2022-12-09T01:27:32.281Z,939.60
2022-12-09T01:29:59.353Z,942.90
2022-12-09T01:32:26.219Z,939.45
2022-12-09T01:34:53.062Z,951.85
2022-12-09T01:37:20.293Z,950.97
2022-12-09T01:39:47.166Z,947.80
2022-12-09T01:42:22.886Z,956.90
2022-12-09T01:45:22.080Z,945.92
2022-12-09T01:48:05.354Z,954.25
2022-12-09T01:50:33.882Z,951.60
2022-12-09T01:53:01.090Z,956.55
2022-12-09T01:55:29.338Z,957.65
2022-12-09T01:57:56.263Z,954.13
2022-12-09T02:00:23.127Z,957.75
2022-12-09T02:02:54.077Z,952.47
2022-12-09T02:05:24.472Z,959.73
2022-12-09T02:07:57.252Z,958.42
2022-12-09T02:10:24.736Z,958.80
2022-12-09T02:13:30.849Z,955.67
2022-12-09T02:16:01.768Z,938.05
2022-12-09T02:18:50.663Z,941.30
2022-12-09T02:21:35.412Z,943.47
2022-12-09T02:24:12.980Z,945.58
2022-12-09T02:27:01.012Z,947.55
2022-12-09T02:29:36.750Z,934.67
2022-12-09T02:32:37.041Z,940.88
2022-12-09T02:35:38.435Z,942.40
2022-12-09T02:38:13.287Z,937.50
2022-12-09T02:40:40.501Z,947.00
2022-12-09T02:43:10.286Z,946.72
2022-12-09T02:45:40.956Z,942.45
2022-12-09T02:48:09.551Z,942.38
2022-12-09T02:50:38.491Z,916.63
2022-12-09T02:53:09.364Z,941.60
2022-12-09T02:55:39.024Z,934.88
2022-12-09T02:58:05.949Z,937.63
2022-12-09T03:00:34.968Z,936.30
2022-12-09T03:03:04.063Z,938.50
2022-12-09T03:05:42.963Z,939.42
2022-12-09T03:08:15.976Z,942.40
2022-12-09T03:10:59.849Z,943.03
2022-12-09T03:14:03.662Z,940.50
2022-12-09T03:16:35.102Z,943.70
2022-12-09T03:19:23.242Z,946.58
2022-12-09T03:21:54.022Z,955.27
2022-12-09T03:24:44.445Z,951.90
2022-12-09T03:27:18.743Z,954.20
2022-12-09T03:29:48.428Z,949.05
2022-12-09T03:32:17.998Z,948.47
2022-12-09T03:34:47.631Z,956.33
2022-12-09T03:37:17.681Z,953.17
2022-12-09T03:39:46.472Z,955.83
2022-12-09T03:42:26.649Z,964.85
2022-12-09T03:45:01.266Z,956.05
2022-12-09T03:47:32.252Z,960.77
2022-12-09T03:49:59.488Z,965.22
2022-12-09T03:52:40.219Z,967.58
2022-12-09T03:55:19.351Z,968.63
2022-12-09T03:57:49.019Z,964.50
2022-12-09T04:00:18.209Z,968.85
2022-12-09T04:02:45.468Z,965.10
2022-12-09T04:05:12.525Z,961.47
2022-12-09T04:07:39.573Z,954.92
2022-12-09T04:10:07.588Z,956.70
2022-12-09T04:12:35.201Z,961.08
2022-12-09T04:15:02.080Z,961.37
2022-12-09T04:17:28.981Z,958.72
2022-12-09T04:19:57.421Z,958.33
2022-12-09T04:22:24.112Z,953.40
2022-12-09T04:24:50.843Z,952.95
2022-12-09T04:27:17.739Z,952.47
2022-12-09T04:29:45.738Z,954.88
2022-12-09T04:32:13.076Z,958.80
2022-12-09T04:34:40.286Z,950.55
2022-12-09T04:37:07.034Z,954.33
2022-12-09T04:39:33.885Z,948.60
2022-12-09T04:42:00.585Z,951.85
2022-12-09T04:44:27.383Z,943.63
2022-12-09T04:46:54.258Z,950.20
2022-12-09T04:49:21.234Z,950.20
2022-12-09T04:51:47.959Z,946.97
2022-12-09T04:54:15.325Z,941.45
2022-12-09T04:56:42.698Z,948.45
2022-12-09T04:59:09.887Z,951.15
2022-12-09T05:01:37.223Z,952.35
2022-12-09T05:04:04.881Z,957.75
2022-12-09T05:06:32.848Z,954.90
2022-12-09T05:09:00.336Z,946.92
2022-12-09T05:11:27.570Z,952.13
2022-12-09T05:13:54.647Z,952.35
2022-12-09T05:16:22.527Z,951.03
2022-12-09T05:18:50.124Z,949.83
2022-12-09T05:21:19.390Z,948.67
2022-12-09T05:23:46.594Z,951.83
2022-12-09T05:26:15.973Z,942.97
2022-12-09T05:28:43.020Z,946.38
2022-12-09T05:31:13.258Z,947.78
2022-12-09T05:33:40.629Z,942.25
2022-12-09T05:36:11.824Z,943.67
2022-12-09T05:38:39.222Z,952.88
2022-12-09T05:41:06.607Z,940.58
2022-12-09T05:43:34.604Z,951.13
2022-12-09T05:46:02.603Z,947.03
2022-12-09T05:48:30.329Z,945.70
2022-12-09T05:51:03.622Z,953.45
2022-12-09T05:53:30.935Z,949.85
2022-12-09T05:55:58.265Z,945.28
2022-12-09T05:58:25.811Z,942.83
2022-12-09T06:00:56.420Z,948.13
2022-12-09T06:03:24.140Z,945.70
2022-12-09T06:05:51.366Z,943.55
2022-12-09T06:08:18.793Z,946.58
2022-12-09T06:10:47.220Z,945.05
2022-12-09T06:13:14.709Z,945.10
2022-12-09T06:15:41.775Z,945.70
2022-12-09T06:18:09.029Z,943.72
2022-12-09T06:20:42.477Z,938.47
2022-12-09T06:23:09.691Z,942.72
2022-12-09T06:25:37.073Z,943.00
2022-12-09T06:28:04.744Z,943.13
2022-12-09T06:30:31.845Z,939.70
2022-12-09T06:32:59.137Z,942.23
2022-12-09T06:35:26.122Z,944.70
2022-12-09T06:37:53.640Z,943.13
2022-12-09T06:40:22.180Z,948.47
2022-12-09T06:42:50.596Z,953.05
2022-12-09T06:45:21.250Z,953.00
2022-12-09T06:47:48.445Z,952.90
2022-12-09T06:50:16.233Z,954.58
2022-12-09T06:52:43.547Z,967.03
2022-12-09T06:55:11.273Z,944.47
2022-12-09T06:57:38.862Z,950.00
2022-12-09T07:00:06.695Z,954.17
2022-12-09T07:02:36.658Z,952.58
2022-12-09T07:05:04.547Z,947.45
2022-12-09T07:07:31.893Z,953.28
2022-12-09T07:10:01.954Z,948.92
2022-12-09T07:12:29.116Z,946.08
2022-12-09T07:14:55.984Z,948.42
2022-12-09T07:17:23.204Z,943.75
2022-12-09T07:19:50.230Z,946.97
2022-12-09T07:22:17.451Z,953.35
2022-12-09T07:24:44.708Z,954.17
2022-12-09T07:27:19.257Z,939.05
2022-12-09T07:29:48.682Z,935.40
2022-12-09T07:32:15.665Z,942.05
2022-12-09T07:34:43.000Z,948.63
2022-12-09T07:37:10.050Z,938.20
2022-12-09T07:39:36.992Z,940.00
2022-12-09T07:42:05.210Z,935.85
2022-12-09T07:44:44.279Z,934.28
2022-12-09T07:47:12.449Z,933.03
2022-12-09T07:49:39.768Z,937.40
2022-12-09T07:52:07.085Z,936.85
2022-12-09T07:54:34.445Z,941.47
2022-12-09T07:57:01.650Z,934.35
2022-12-09T07:59:28.466Z,935.00
2022-12-09T08:01:57.001Z,878.73
2022-12-09T08:04:26.795Z,940.50
2022-12-09T08:06:54.024Z,940.53
2022-12-09T08:09:21.828Z,936.10
2022-12-09T08:11:48.978Z,939.33
2022-12-09T08:14:16.313Z,934.78
2022-12-09T08:16:44.109Z,939.13
2022-12-09T08:19:12.349Z,939.25
2022-12-09T08:21:39.980Z,940.92
2022-12-09T08:24:08.061Z,948.40
2022-12-09T08:26:37.480Z,939.20
2022-12-09T08:29:11.296Z,935.97
2022-12-09T08:31:42.149Z,933.80
2022-12-09T08:34:10.223Z,926.95
2022-12-09T08:36:37.819Z,935.67
2022-12-09T08:39:06.115Z,933.25
2022-12-09T08:41:35.791Z,936.35
2022-12-09T08:44:07.935Z,930.00
2022-12-09T08:46:36.543Z,920.35
2022-12-09T08:49:04.521Z,886.15
2022-12-09T08:51:32.592Z,896.38
2022-12-09T08:54:00.696Z,934.97
2022-12-09T08:56:28.512Z,858.43
2022-12-09T08:58:56.510Z,859.85
2022-12-09T09:01:27.979Z,871.80
2022-12-09T09:03:55.621Z,874.90
2022-12-09T09:06:22.966Z,875.38
2022-12-09T09:08:49.794Z,876.35
2022-12-09T09:11:19.738Z,881.88
2022-12-09T09:13:48.946Z,886.30
2022-12-09T09:16:23.880Z,883.85
2022-12-09T09:18:51.671Z,883.33
2022-12-09T09:21:21.700Z,885.97
2022-12-09T09:23:49.441Z,884.37
2022-12-09T09:26:22.781Z,883.42
2022-12-09T09:28:50.290Z,884.45
2022-12-09T09:31:19.805Z,881.25
2022-12-09T09:33:48.158Z,887.40
2022-12-09T09:36:20.264Z,885.85
2022-12-09T09:38:49.121Z,880.00
2022-12-09T09:41:23.335Z,877.72
2022-12-09T09:43:51.186Z,886.75
2022-12-09T09:46:27.188Z,888.97
2022-12-09T09:48:55.911Z,888.63
2022-12-09T09:51:23.626Z,889.97
2022-12-09T09:53:53.374Z,889.53
2022-12-09T09:56:37.699Z,888.28
2022-12-09T09:59:26.320Z,885.47
2022-12-09T10:02:16.125Z,885.10
2022-12-09T10:05:01.456Z,888.57
2022-12-09T10:07:44.662Z,888.40
2022-12-09T10:10:32.610Z,886.88
2022-12-09T10:13:35.318Z,886.17
2022-12-09T10:16:22.066Z,887.28
2022-12-09T10:19:09.275Z,892.95
2022-12-09T10:21:41.605Z,886.30
2022-12-09T10:24:19.210Z,884.13
2022-12-09T10:26:58.590Z,886.78
2022-12-09T10:29:43.390Z,889.05
2022-12-09T10:32:21.362Z,884.88
2022-12-09T10:34:48.894Z,874.45
2022-12-09T10:37:35.368Z,879.30
2022-12-09T10:40:49.866Z,878.03
2022-12-09T10:43:35.255Z,878.25
2022-12-09T10:46:17.954Z,879.55
2022-12-09T10:48:46.461Z,879.95
2022-12-09T10:51:25.961Z,876.25
2022-12-09T10:54:11.213Z,878.55
2022-12-09T10:57:02.190Z,885.25
2022-12-09T10:59:31.391Z,881.25
2022-12-09T11:02:01.956Z,870.95
2022-12-09T11:04:33.949Z,871.78
2022-12-09T11:07:17.388Z,873.90
2022-12-09T11:09:51.086Z,872.92
2022-12-09T11:12:28.605Z,880.22
2022-12-09T11:15:02.937Z,878.67
2022-12-09T11:17:39.904Z,883.00
2022-12-09T11:20:21.379Z,879.42
2022-12-09T11:23:12.381Z,882.87
2022-12-09T11:25:53.961Z,883.40
2022-12-09T11:28:26.122Z,885.75
2022-12-09T11:33:57.158Z,884.75
2022-12-09T11:36:30.918Z,876.07
2022-12-09T11:39:23.112Z,878.25
2022-12-09T11:42:19.294Z,878.58
2022-12-09T11:45:18.606Z,877.38
2022-12-09T11:50:36.477Z,878.38
2022-12-09T11:53:12.017Z,880.20
2022-12-09T11:55:57.939Z,876.08
2022-12-09T11:58:42.603Z,878.10
2022-12-09T12:01:21.096Z,884.92
2022-12-09T12:04:01.663Z,880.33
2022-12-09T12:07:00.814Z,877.88
2022-12-09T12:09:37.394Z,882.30
2022-12-09T12:12:30.377Z,885.53
2022-12-09T12:15:02.467Z,878.40
2022-12-09T12:17:41.455Z,885.45
2022-12-09T12:20:12.551Z,881.67
2022-12-09T12:23:09.364Z,882.83
2022-12-09T12:25:59.555Z,882.25
2022-12-09T12:28:42.617Z,882.45
2022-12-09T12:31:18.612Z,884.97
2022-12-09T12:34:35.638Z,888.15
2022-12-09T12:37:27.840Z,893.93
2022-12-09T12:40:07.353Z,896.42
2022-12-09T12:43:16.259Z,893.35
2022-12-09T12:46:18.283Z,893.88
2022-12-09T12:48:54.047Z,893.33
2022-12-09T12:51:42.482Z,896.70
2022-12-09T12:54:38.341Z,899.15
2022-12-09T12:57:09.864Z,898.17
2022-12-09T12:59:57.272Z,901.13
2022-12-09T13:02:52.694Z,899.28
2022-12-09T13:05:23.638Z,894.60
2022-12-09T13:07:59.461Z,883.72
2022-12-09T13:10:46.778Z,879.25
2022-12-09T13:13:19.766Z,890.85
2022-12-09T13:15:53.037Z,900.72
2022-12-09T13:18:31.542Z,899.88
2022-12-09T13:21:00.126Z,902.97
2022-12-09T13:23:36.830Z,905.67
2022-12-09T13:26:26.151Z,902.55
2022-12-09T13:29:11.356Z,905.28
2022-12-09T13:31:45.629Z,902.10
2022-12-09T13:34:32.186Z,905.45
2022-12-09T13:36:58.981Z,901.60
2022-12-09T13:39:41.351Z,902.58
2022-12-09T13:42:47.586Z,909.30
2022-12-09T13:45:22.935Z,910.70
2022-12-09T13:47:53.466Z,903.88
2022-12-09T13:50:48.897Z,904.47
2022-12-09T13:53:25.156Z,910.67
2022-12-09T13:56:00.102Z,903.67
2022-12-09T13:58:52.321Z,906.38
2022-12-09T14:01:24.042Z,901.15
2022-12-09T14:03:50.700Z,902.13
2022-12-09T14:06:25.659Z,899.28
2022-12-09T14:08:57.286Z,915.95
2022-12-09T14:11:47.012Z,907.47
2022-12-09T14:14:26.086Z,905.60
2022-12-09T14:16:54.544Z,907.65
2022-12-09T14:19:24.035Z,901.80
2022-12-09T14:22:22.138Z,913.78
2022-12-09T14:24:55.587Z,913.42
2022-12-09T14:27:31.991Z,916.27
2022-12-09T14:29:59.651Z,914.83
2022-12-09T14:32:44.842Z,910.72
2022-12-09T14:35:11.640Z,919.00
2022-12-09T14:38:03.034Z,912.10
2022-12-09T14:40:37.247Z,911.85
2022-12-09T14:43:26.113Z,914.45
2022-12-09T14:46:27.102Z,914.90
2022-12-09T14:48:57.754Z,907.03
2022-12-09T14:51:43.806Z,914.45
2022-12-09T14:54:41.634Z,913.05
2022-12-09T14:57:24.362Z,914.60
2022-12-09T14:59:53.814Z,911.35
2022-12-09T15:02:27.130Z,915.67
2022-12-09T15:04:54.767Z,914.33
2022-12-09T15:07:33.174Z,915.20
2022-12-09T15:10:29.451Z,925.53
2022-12-09T15:13:00.241Z,934.43
2022-12-09T15:15:30.338Z,924.50
2022-12-09T15:18:17.562Z,922.17
2022-12-09T15:20:56.345Z,923.20
2022-12-09T15:23:35.693Z,923.13
2022-12-09T15:26:06.937Z,918.70
2022-12-09T15:28:36.083Z,926.47
2022-12-09T15:31:06.892Z,925.20
2022-12-09T15:33:43.332Z,927.58
2022-12-09T15:36:32.642Z,923.65
2022-12-09T15:39:07.269Z,924.50
2022-12-09T15:42:02.157Z,922.33
2022-12-09T15:44:36.021Z,924.38
2022-12-09T15:47:10.347Z,922.47
2022-12-09T15:49:49.655Z,929.63
2022-12-09T15:52:19.746Z,901.67
2022-12-09T15:54:47.296Z,909.67
2022-12-09T15:57:17.794Z,903.03
2022-12-09T15:59:55.460Z,911.80
2022-12-09T16:02:38.913Z,913.38
2022-12-09T16:05:08.947Z,912.42
2022-12-09T16:07:35.714Z,914.28
2022-12-09T16:10:05.262Z,910.10
2022-12-09T16:12:33.413Z,915.38
2022-12-09T16:15:04.019Z,913.75
2022-12-09T16:17:34.164Z,907.60
2022-12-09T16:20:39.175Z,912.38
2022-12-09T16:23:20.249Z,910.47
2022-12-09T16:25:49.765Z,916.95
2022-12-09T16:28:24.647Z,910.23
2022-12-09T16:30:57.170Z,914.60
2022-12-09T16:33:24.620Z,913.27
2022-12-09T16:36:06.639Z,908.90
2022-12-09T16:38:35.511Z,908.43
2022-12-09T16:41:05.865Z,904.53
2022-12-09T16:43:33.863Z,904.35
2022-12-09T16:46:22.529Z,906.20
2022-12-09T16:48:49.779Z,916.70
2022-12-09T16:51:20.559Z,914.22
2022-12-09T16:53:50.569Z,916.08
2022-12-09T16:56:20.095Z,907.45
2022-12-09T16:58:47.277Z,914.37
2022-12-09T17:01:16.259Z,906.43
2022-12-09T17:03:56.121Z,907.40
2022-12-09T17:06:22.853Z,910.20
2022-12-09T17:08:49.639Z,911.50
2022-12-09T17:11:17.683Z,908.95
2022-12-09T17:13:45.423Z,912.63
2022-12-09T17:16:12.301Z,912.60
2022-12-09T17:18:39.788Z,910.13
2022-12-09T17:21:11.665Z,910.58
2022-12-09T17:23:40.258Z,909.05
2022-12-09T17:26:10.512Z,907.17
2022-12-09T17:28:38.105Z,908.88
2022-12-09T17:31:11.719Z,914.42
2022-12-09T17:33:38.623Z,906.75
2022-12-09T17:36:06.307Z,907.05
2022-12-09T17:38:34.259Z,893.63
2022-12-09T17:41:09.475Z,891.33
2022-12-09T17:43:36.561Z,889.15
2022-12-09T17:46:05.801Z,893.55
2022-12-09T17:48:34.058Z,896.20
2022-12-09T17:51:06.344Z,886.67
2022-12-09T17:53:36.395Z,887.53
2022-12-09T17:56:09.133Z,888.42
2022-12-09T17:58:36.438Z,882.50
2022-12-09T18:01:03.545Z,877.13
2022-12-09T18:03:54.999Z,882.60
2022-12-09T18:06:17.465Z,882.83
2022-12-09T18:08:44.307Z,882.80
2022-12-09T18:11:11.065Z,883.40
2022-12-09T18:13:38.162Z,883.47
2022-12-09T18:16:10.162Z,884.75
2022-12-09T18:18:41.121Z,885.88
2022-12-09T18:21:15.097Z,886.45
2022-12-09T18:23:42.762Z,893.47
2022-12-09T18:26:14.192Z,878.35
2022-12-09T18:28:41.395Z,885.47
2022-12-09T18:31:18.934Z,890.73
2022-12-09T18:33:45.840Z,887.20
2022-12-09T18:36:15.075Z,882.07
2022-12-09T18:38:42.378Z,878.40
2022-12-09T18:41:13.894Z,877.25
2022-12-09T18:43:44.750Z,878.67
2022-12-09T18:46:15.598Z,883.92
2022-12-09T18:48:42.584Z,879.93
2022-12-09T18:51:20.419Z,882.97
2022-12-09T18:53:47.987Z,883.80
2022-12-09T18:56:16.641Z,877.83
2022-12-09T18:59:05.353Z,883.15
2022-12-09T19:01:31.428Z,884.10
2022-12-09T19:04:00.645Z,885.53
2022-12-09T19:06:36.317Z,886.85
2022-12-09T19:09:08.182Z,885.22
2022-12-09T19:11:37.767Z,885.35
2022-12-09T19:14:06.205Z,892.30
2022-12-09T19:16:33.768Z,890.95
2022-12-09T19:19:07.182Z,889.22
2022-12-09T19:21:36.150Z,892.45
2022-12-09T19:24:02.915Z,895.30
2022-12-09T19:26:31.908Z,899.42
2022-12-09T19:29:04.786Z,894.80
2022-12-09T19:31:38.170Z,893.33
2022-12-09T19:34:17.551Z,895.05
2022-12-09T19:36:45.400Z,892.15
2022-12-09T19:39:14.175Z,889.17
2022-12-09T19:41:41.791Z,891.35
2022-12-09T19:44:11.278Z,891.70
2022-12-09T19:46:38.550Z,891.03
2022-12-09T19:49:05.347Z,899.88
2022-12-09T19:51:32.178Z,897.40
2022-12-09T19:54:01.434Z,897.85
2022-12-09T19:56:29.265Z,895.03
2022-12-09T19:58:56.842Z,893.03
2022-12-09T20:01:26.066Z,894.67
2022-12-09T20:03:58.214Z,895.00
2022-12-09T20:06:25.438Z,885.20
2022-12-09T20:08:53.808Z,902.45
2022-12-09T20:11:23.387Z,900.03
2022-12-09T20:13:53.051Z,901.63
2022-12-09T20:16:22.711Z,909.58
2022-12-09T20:18:50.819Z,906.72
2022-12-09T20:21:19.368Z,908.55
2022-12-09T20:23:47.305Z,904.67
2022-12-09T20:26:17.201Z,901.88
2022-12-09T20:28:46.566Z,908.28
2022-12-09T20:31:16.416Z,909.70
2022-12-09T20:33:43.458Z,907.47
2022-12-09T20:36:12.013Z,903.10
2022-12-09T20:38:40.042Z,905.88
2022-12-09T20:41:12.562Z,904.92
2022-12-09T20:43:41.938Z,906.03
2022-12-09T20:46:14.238Z,907.90
2022-12-09T20:48:41.562Z,909.87
2022-12-09T20:51:40.452Z,910.75
2022-12-09T20:54:09.674Z,909.70
2022-12-09T20:56:37.085Z,911.53
2022-12-09T20:59:04.709Z,906.90
2022-12-09T21:01:33.556Z,903.25
2022-12-09T21:04:01.575Z,899.88
2022-12-09T21:06:31.845Z,898.15
2022-12-09T21:09:04.093Z,894.72
2022-12-09T21:11:32.307Z,898.60
2022-12-09T21:14:01.158Z,897.78
2022-12-09T21:16:30.653Z,905.30
2022-12-09T21:18:59.761Z,908.10
2022-12-09T21:21:30.004Z,902.13
2022-12-09T21:23:57.107Z,900.13
2022-12-09T21:26:25.172Z,900.95
2022-12-09T21:28:52.889Z,896.05
2022-12-09T21:31:22.911Z,896.15
2022-12-09T21:33:51.318Z,896.38
2022-12-09T21:36:23.323Z,893.45
2022-12-09T21:38:50.982Z,897.38
2022-12-09T21:41:21.029Z,900.80
2022-12-09T21:43:48.007Z,897.67
2022-12-09T21:46:19.727Z,895.00
2022-12-09T21:48:51.974Z,906.42
2022-12-09T21:51:20.213Z,889.10
2022-12-09T21:53:47.764Z,897.20
2022-12-09T21:56:15.881Z,893.00
2022-12-09T21:58:44.178Z,887.50
2022-12-09T22:01:38.768Z,891.10
2022-12-09T22:04:08.311Z,893.65
2022-12-09T22:06:35.710Z,892.47
2022-12-09T22:09:04.203Z,900.00
2022-12-09T22:11:33.644Z,901.55
2022-12-09T22:14:02.331Z,897.20
2022-12-09T22:16:33.244Z,897.10
2022-12-09T22:19:01.531Z,899.90
2022-12-09T22:21:30.531Z,899.28
2022-12-09T22:24:00.172Z,902.15
2022-12-09T22:26:27.335Z,893.97
2022-12-09T22:28:54.325Z,871.97
2022-12-09T22:31:24.702Z,875.33
2022-12-09T22:33:53.495Z,881.15
2022-12-09T22:36:21.109Z,888.67
2022-12-09T22:38:49.486Z,889.70
2022-12-09T22:41:21.962Z,887.60
2022-12-09T22:43:50.146Z,888.57
2022-12-09T22:46:19.455Z,891.87
2022-12-09T22:48:46.509Z,892.33
2022-12-09T22:51:15.670Z,890.67
2022-12-09T22:53:42.936Z,894.90
2022-12-09T22:56:11.339Z,890.40
2022-12-09T22:58:38.665Z,894.78
2022-12-09T23:01:14.375Z,897.97
2022-12-09T23:03:41.336Z,896.95
2022-12-09T23:06:08.459Z,900.00
2022-12-09T23:08:36.617Z,899.80
2022-12-09T23:11:10.646Z,895.50
2022-12-09T23:13:41.195Z,900.35
2022-12-09T23:16:12.364Z,899.27
2022-12-09T23:18:40.217Z,904.00
2022-12-09T23:21:10.743Z,900.30
2022-12-09T23:23:37.747Z,900.83
2022-12-09T23:26:06.933Z,893.72
2022-12-09T23:28:45.582Z,891.80
2022-12-09T23:31:14.786Z,898.00
2022-12-09T23:33:44.024Z,897.78
2022-12-09T23:36:14.240Z,896.78
2022-12-09T23:38:41.355Z,897.58
2022-12-09T23:41:09.518Z,896.08
2022-12-09T23:43:38.049Z,896.90
2022-12-09T23:46:13.042Z,902.43
2022-12-09T23:48:42.835Z,906.55
2022-12-09T23:51:15.118Z,913.80
2022-12-09T23:53:43.345Z,907.97
2022-12-09T23:56:20.091Z,902.03
2022-12-09T23:58:48.318Z,906.85
